sensor_id;sensor_type;location;lat;lon;timestamp;P1;durP1;ratioP1;P2;durP2;ratioP2
22851;SDS011;11592;45.460;9.240;2022-07-23T00:01:31;8.52;;;5.85;;
22851;SDS011;11592;45.460;9.240;2022-07-23T00:03:58;8.13;;;5.93;;
22851;SDS011;11592;45.460;9.240;2022-07-23T00:06:25;14.90;;;5.97;;
22851;SDS011;11592;45.460;9.240;2022-07-23T00:08:52;9.80;;;5.68;;
22851;SDS011;11592;45.460;9.240;2022-07-23T00:11:19;10.90;;;5.78;;
22851;SDS011;11592;45.460;9.240;2022-07-23T00:13:48;8.60;;;5.78;;
22851;SDS011;11592;45.460;9.240;2022-07-23T00:16:14;8.32;;;5.43;;
22851;SDS011;11592;45.460;9.240;2022-07-23T00:18:41;9.57;;;6.07;;
22851;SDS011;11592;45.460;9.240;2022-07-23T00:21:08;8.52;;;5.90;;
22851;SDS011;11592;45.460;9.240;2022-07-23T00:23:35;7.95;;;6.05;;
22851;SDS011;11592;45.460;9.240;2022-07-23T00:26:02;13.20;;;5.90;;
22851;SDS011;11592;45.460;9.240;2022-07-23T00:28:29;9.75;;;5.70;;
22851;SDS011;11592;45.460;9.240;2022-07-23T00:30:55;12.25;;;5.85;;
22851;SDS011;11592;45.460;9.240;2022-07-23T00:33:22;9.52;;;5.85;;
22851;SDS011;11592;45.460;9.240;2022-07-23T00:35:49;10.85;;;6.03;;
22851;SDS011;11592;45.460;9.240;2022-07-23T00:38:16;10.38;;;6.00;;
22851;SDS011;11592;45.460;9.240;2022-07-23T00:40:42;9.48;;;6.07;;
22851;SDS011;11592;45.460;9.240;2022-07-23T00:43:09;9.50;;;5.97;;
22851;SDS011;11592;45.460;9.240;2022-07-23T00:45:36;11.00;;;5.90;;
22851;SDS011;11592;45.460;9.240;2022-07-23T00:48:03;7.28;;;5.82;;
22851;SDS011;11592;45.460;9.240;2022-07-23T00:50:30;9.18;;;6.05;;
22851;SDS011;11592;45.460;9.240;2022-07-23T00:52:57;11.13;;;6.10;;
22851;SDS011;11592;45.460;9.240;2022-07-23T00:55:24;7.32;;;6.20;;
22851;SDS011;11592;45.460;9.240;2022-07-23T00:57:51;9.45;;;6.18;;
22851;SDS011;11592;45.460;9.240;2022-07-23T01:00:19;11.25;;;6.10;;
22851;SDS011;11592;45.460;9.240;2022-07-23T01:02:46;10.90;;;5.97;;
22851;SDS011;11592;45.460;9.240;2022-07-23T01:05:13;10.63;;;6.15;;
22851;SDS011;11592;45.460;9.240;2022-07-23T01:07:41;10.20;;;6.82;;
22851;SDS011;11592;45.460;9.240;2022-07-23T01:10:09;12.75;;;6.55;;
22851;SDS011;11592;45.460;9.240;2022-07-23T01:12:55;12.43;;;6.20;;
22851;SDS011;11592;45.460;9.240;2022-07-23T01:15:22;13.77;;;6.60;;
22851;SDS011;11592;45.460;9.240;2022-07-23T01:17:49;15.13;;;6.57;;
22851;SDS011;11592;45.460;9.240;2022-07-23T01:20:17;10.88;;;6.28;;
22851;SDS011;11592;45.460;9.240;2022-07-23T01:22:44;11.57;;;7.10;;
22851;SDS011;11592;45.460;9.240;2022-07-23T01:25:11;18.02;;;6.25;;
22851;SDS011;11592;45.460;9.240;2022-07-23T01:27:38;7.90;;;6.10;;
22851;SDS011;11592;45.460;9.240;2022-07-23T01:30:05;14.10;;;6.38;;
22851;SDS011;11592;45.460;9.240;2022-07-23T01:32:33;9.95;;;6.03;;
22851;SDS011;11592;45.460;9.240;2022-07-23T01:35:00;9.10;;;6.80;;
22851;SDS011;11592;45.460;9.240;2022-07-23T01:37:27;8.40;;;5.70;;
22851;SDS011;11592;45.460;9.240;2022-07-23T01:39:53;7.68;;;5.90;;
22851;SDS011;11592;45.460;9.240;2022-07-23T01:42:20;12.10;;;5.88;;
22851;SDS011;11592;45.460;9.240;2022-07-23T01:44:47;9.30;;;6.60;;
22851;SDS011;11592;45.460;9.240;2022-07-23T01:47:14;12.15;;;6.20;;
22851;SDS011;11592;45.460;9.240;2022-07-23T01:49:41;11.88;;;6.85;;
22851;SDS011;11592;45.460;9.240;2022-07-23T01:52:08;10.40;;;6.30;;
22851;SDS011;11592;45.460;9.240;2022-07-23T01:54:38;9.80;;;6.30;;
22851;SDS011;11592;45.460;9.240;2022-07-23T01:57:05;10.80;;;6.45;;
22851;SDS011;11592;45.460;9.240;2022-07-23T01:59:33;14.75;;;6.75;;
22851;SDS011;11592;45.460;9.240;2022-07-23T02:02:00;9.20;;;6.00;;
22851;SDS011;11592;45.460;9.240;2022-07-23T02:04:27;12.25;;;6.53;;
22851;SDS011;11592;45.460;9.240;2022-07-23T02:06:54;10.20;;;6.47;;
22851;SDS011;11592;45.460;9.240;2022-07-23T02:09:21;8.07;;;6.35;;
22851;SDS011;11592;45.460;9.240;2022-07-23T02:11:48;11.35;;;7.00;;
22851;SDS011;11592;45.460;9.240;2022-07-23T02:14:15;7.70;;;6.15;;
22851;SDS011;11592;45.460;9.240;2022-07-23T02:16:42;9.90;;;6.25;;
22851;SDS011;11592;45.460;9.240;2022-07-23T02:19:09;10.95;;;6.18;;
22851;SDS011;11592;45.460;9.240;2022-07-23T02:21:35;12.52;;;6.30;;
22851;SDS011;11592;45.460;9.240;2022-07-23T02:24:02;11.43;;;6.10;;
22851;SDS011;11592;45.460;9.240;2022-07-23T02:26:30;9.73;;;6.32;;
22851;SDS011;11592;45.460;9.240;2022-07-23T02:29:01;11.93;;;6.53;;
22851;SDS011;11592;45.460;9.240;2022-07-23T02:31:30;11.88;;;6.80;;
22851;SDS011;11592;45.460;9.240;2022-07-23T02:33:57;12.27;;;6.93;;
22851;SDS011;11592;45.460;9.240;2022-07-23T02:36:24;9.45;;;6.60;;
22851;SDS011;11592;45.460;9.240;2022-07-23T02:38:51;9.40;;;6.20;;
22851;SDS011;11592;45.460;9.240;2022-07-23T02:41:18;10.40;;;6.35;;
22851;SDS011;11592;45.460;9.240;2022-07-23T02:43:45;11.15;;;6.07;;
22851;SDS011;11592;45.460;9.240;2022-07-23T02:46:12;10.02;;;6.20;;
22851;SDS011;11592;45.460;9.240;2022-07-23T02:48:39;13.55;;;7.03;;
22851;SDS011;11592;45.460;9.240;2022-07-23T02:51:06;12.15;;;6.18;;
22851;SDS011;11592;45.460;9.240;2022-07-23T02:53:40;15.27;;;6.97;;
22851;SDS011;11592;45.460;9.240;2022-07-23T02:56:06;10.02;;;6.45;;
22851;SDS011;11592;45.460;9.240;2022-07-23T02:58:33;8.70;;;6.43;;
22851;SDS011;11592;45.460;9.240;2022-07-23T03:01:00;14.20;;;6.78;;
22851;SDS011;11592;45.460;9.240;2022-07-23T03:03:27;8.75;;;6.20;;
22851;SDS011;11592;45.460;9.240;2022-07-23T03:05:55;10.73;;;6.30;;
22851;SDS011;11592;45.460;9.240;2022-07-23T03:08:22;12.23;;;6.88;;
22851;SDS011;11592;45.460;9.240;2022-07-23T03:10:49;12.05;;;6.60;;
22851;SDS011;11592;45.460;9.240;2022-07-23T03:13:16;11.90;;;6.93;;
22851;SDS011;11592;45.460;9.240;2022-07-23T03:15:42;10.15;;;6.53;;
22851;SDS011;11592;45.460;9.240;2022-07-23T03:18:09;11.57;;;6.72;;
22851;SDS011;11592;45.460;9.240;2022-07-23T03:20:36;11.98;;;7.18;;
22851;SDS011;11592;45.460;9.240;2022-07-23T03:23:03;12.38;;;6.80;;
22851;SDS011;11592;45.460;9.240;2022-07-23T03:25:29;15.45;;;7.18;;
22851;SDS011;11592;45.460;9.240;2022-07-23T03:27:56;11.68;;;7.07;;
22851;SDS011;11592;45.460;9.240;2022-07-23T03:30:23;15.85;;;7.80;;
22851;SDS011;11592;45.460;9.240;2022-07-23T03:32:50;13.65;;;7.00;;
22851;SDS011;11592;45.460;9.240;2022-07-23T03:35:17;10.30;;;7.50;;
22851;SDS011;11592;45.460;9.240;2022-07-23T03:37:44;10.63;;;6.50;;
22851;SDS011;11592;45.460;9.240;2022-07-23T03:40:12;11.40;;;6.95;;
22851;SDS011;11592;45.460;9.240;2022-07-23T03:42:39;11.73;;;6.68;;
22851;SDS011;11592;45.460;9.240;2022-07-23T03:45:08;14.10;;;7.22;;
22851;SDS011;11592;45.460;9.240;2022-07-23T03:47:35;7.68;;;6.28;;
22851;SDS011;11592;45.460;9.240;2022-07-23T03:50:02;11.10;;;6.53;;
22851;SDS011;11592;45.460;9.240;2022-07-23T03:52:29;14.90;;;7.60;;
22851;SDS011;11592;45.460;9.240;2022-07-23T03:54:56;12.20;;;7.55;;
22851;SDS011;11592;45.460;9.240;2022-07-23T03:57:23;13.60;;;6.85;;
22851;SDS011;11592;45.460;9.240;2022-07-23T03:59:50;12.07;;;7.18;;
22851;SDS011;11592;45.460;9.240;2022-07-23T04:02:16;11.18;;;6.78;;
22851;SDS011;11592;45.460;9.240;2022-07-23T04:04:43;19.45;;;7.18;;
22851;SDS011;11592;45.460;9.240;2022-07-23T04:07:10;9.27;;;6.88;;
22851;SDS011;11592;45.460;9.240;2022-07-23T04:09:37;13.38;;;7.35;;
22851;SDS011;11592;45.460;9.240;2022-07-23T04:12:08;19.13;;;7.45;;
22851;SDS011;11592;45.460;9.240;2022-07-23T04:14:35;12.35;;;7.10;;
22851;SDS011;11592;45.460;9.240;2022-07-23T04:17:02;9.50;;;6.57;;
22851;SDS011;11592;45.460;9.240;2022-07-23T04:19:29;10.43;;;6.68;;
22851;SDS011;11592;45.460;9.240;2022-07-23T04:21:56;11.15;;;7.07;;
22851;SDS011;11592;45.460;9.240;2022-07-23T04:24:23;12.23;;;7.32;;
22851;SDS011;11592;45.460;9.240;2022-07-23T04:26:50;10.73;;;6.93;;
22851;SDS011;11592;45.460;9.240;2022-07-23T04:29:17;10.70;;;6.88;;
22851;SDS011;11592;45.460;9.240;2022-07-23T04:31:44;13.52;;;7.60;;
22851;SDS011;11592;45.460;9.240;2022-07-23T04:34:10;15.30;;;7.30;;
22851;SDS011;11592;45.460;9.240;2022-07-23T04:36:37;13.00;;;7.18;;
22851;SDS011;11592;45.460;9.240;2022-07-23T04:39:04;8.75;;;7.28;;
22851;SDS011;11592;45.460;9.240;2022-07-23T04:41:32;13.48;;;6.85;;
22851;SDS011;11592;45.460;9.240;2022-07-23T04:44:00;12.32;;;7.32;;
22851;SDS011;11592;45.460;9.240;2022-07-23T04:46:28;14.38;;;7.38;;
22851;SDS011;11592;45.460;9.240;2022-07-23T04:48:55;13.82;;;6.72;;
22851;SDS011;11592;45.460;9.240;2022-07-23T04:51:22;9.70;;;6.30;;
22851;SDS011;11592;45.460;9.240;2022-07-23T04:53:49;8.63;;;6.65;;
22851;SDS011;11592;45.460;9.240;2022-07-23T04:56:16;9.20;;;6.70;;
22851;SDS011;11592;45.460;9.240;2022-07-23T04:58:42;14.18;;;6.82;;
22851;SDS011;11592;45.460;9.240;2022-07-23T05:01:09;13.40;;;7.03;;
22851;SDS011;11592;45.460;9.240;2022-07-23T05:03:36;11.65;;;6.95;;
22851;SDS011;11592;45.460;9.240;2022-07-23T05:06:03;10.82;;;6.90;;
22851;SDS011;11592;45.460;9.240;2022-07-23T05:08:30;13.27;;;6.47;;
22851;SDS011;11592;45.460;9.240;2022-07-23T05:10:57;8.85;;;6.28;;
22851;SDS011;11592;45.460;9.240;2022-07-23T05:13:24;13.40;;;6.90;;
22851;SDS011;11592;45.460;9.240;2022-07-23T05:15:51;10.50;;;6.90;;
22851;SDS011;11592;45.460;9.240;2022-07-23T05:18:18;10.00;;;6.72;;
22851;SDS011;11592;45.460;9.240;2022-07-23T05:20:45;15.57;;;7.22;;
22851;SDS011;11592;45.460;9.240;2022-07-23T05:23:11;12.88;;;6.55;;
22851;SDS011;11592;45.460;9.240;2022-07-23T05:25:39;9.45;;;7.40;;
22851;SDS011;11592;45.460;9.240;2022-07-23T05:28:06;11.07;;;6.35;;
22851;SDS011;11592;45.460;9.240;2022-07-23T05:30:32;11.10;;;6.85;;
22851;SDS011;11592;45.460;9.240;2022-07-23T05:33:01;11.93;;;7.00;;
22851;SDS011;11592;45.460;9.240;2022-07-23T05:35:28;8.95;;;6.35;;
22851;SDS011;11592;45.460;9.240;2022-07-23T05:37:54;12.00;;;6.50;;
22851;SDS011;11592;45.460;9.240;2022-07-23T05:40:21;9.43;;;6.60;;
22851;SDS011;11592;45.460;9.240;2022-07-23T05:42:48;12.07;;;6.90;;
22851;SDS011;11592;45.460;9.240;2022-07-23T05:45:15;11.00;;;6.85;;
22851;SDS011;11592;45.460;9.240;2022-07-23T05:47:42;8.43;;;6.10;;
22851;SDS011;11592;45.460;9.240;2022-07-23T05:50:11;11.77;;;5.78;;
22851;SDS011;11592;45.460;9.240;2022-07-23T05:52:39;8.60;;;5.63;;
22851;SDS011;11592;45.460;9.240;2022-07-23T05:55:06;9.98;;;5.82;;
22851;SDS011;11592;45.460;9.240;2022-07-23T05:57:34;7.95;;;5.97;;
22851;SDS011;11592;45.460;9.240;2022-07-23T06:00:01;8.82;;;5.00;;
22851;SDS011;11592;45.460;9.240;2022-07-23T06:02:30;8.85;;;4.90;;
22851;SDS011;11592;45.460;9.240;2022-07-23T06:04:56;6.85;;;4.55;;
22851;SDS011;11592;45.460;9.240;2022-07-23T06:07:23;13.18;;;4.88;;
22851;SDS011;11592;45.460;9.240;2022-07-23T06:09:50;8.40;;;4.40;;
22851;SDS011;11592;45.460;9.240;2022-07-23T06:12:17;10.40;;;4.63;;
22851;SDS011;11592;45.460;9.240;2022-07-23T06:14:44;10.50;;;4.68;;
22851;SDS011;11592;45.460;9.240;2022-07-23T06:17:11;12.30;;;4.60;;
22851;SDS011;11592;45.460;9.240;2022-07-23T06:19:38;8.57;;;4.25;;
22851;SDS011;11592;45.460;9.240;2022-07-23T06:22:05;7.88;;;4.35;;
22851;SDS011;11592;45.460;9.240;2022-07-23T06:24:31;8.52;;;4.40;;
22851;SDS011;11592;45.460;9.240;2022-07-23T06:26:58;9.75;;;4.20;;
22851;SDS011;11592;45.460;9.240;2022-07-23T06:29:25;8.30;;;4.10;;
22851;SDS011;11592;45.460;9.240;2022-07-23T06:31:52;6.97;;;3.78;;
22851;SDS011;11592;45.460;9.240;2022-07-23T06:34:19;8.10;;;3.88;;
22851;SDS011;11592;45.460;9.240;2022-07-23T06:36:45;10.50;;;4.28;;
22851;SDS011;11592;45.460;9.240;2022-07-23T06:39:12;5.70;;;3.63;;
22851;SDS011;11592;45.460;9.240;2022-07-23T06:41:40;4.78;;;4.03;;
22851;SDS011;11592;45.460;9.240;2022-07-23T06:44:11;10.93;;;3.83;;
22851;SDS011;11592;45.460;9.240;2022-07-23T06:46:38;6.97;;;4.07;;
22851;SDS011;11592;45.460;9.240;2022-07-23T06:49:05;6.05;;;3.90;;
22851;SDS011;11592;45.460;9.240;2022-07-23T06:51:33;8.07;;;4.20;;
22851;SDS011;11592;45.460;9.240;2022-07-23T06:54:00;9.13;;;4.43;;
22851;SDS011;11592;45.460;9.240;2022-07-23T06:56:27;10.10;;;4.47;;
22851;SDS011;11592;45.460;9.240;2022-07-23T06:58:53;16.17;;;5.35;;
22851;SDS011;11592;45.460;9.240;2022-07-23T07:01:20;7.75;;;4.30;;
22851;SDS011;11592;45.460;9.240;2022-07-23T07:03:47;6.53;;;4.68;;
22851;SDS011;11592;45.460;9.240;2022-07-23T07:06:14;12.23;;;4.82;;
22851;SDS011;11592;45.460;9.240;2022-07-23T07:08:41;8.65;;;4.93;;
22851;SDS011;11592;45.460;9.240;2022-07-23T07:11:09;11.85;;;5.70;;
22851;SDS011;11592;45.460;9.240;2022-07-23T07:13:36;9.00;;;5.60;;
22851;SDS011;11592;45.460;9.240;2022-07-23T07:16:04;9.68;;;5.63;;
22851;SDS011;11592;45.460;9.240;2022-07-23T07:18:31;9.98;;;4.82;;
22851;SDS011;11592;45.460;9.240;2022-07-23T07:20:58;10.27;;;5.30;;
22851;SDS011;11592;45.460;9.240;2022-07-23T07:23:25;14.43;;;5.07;;
22851;SDS011;11592;45.460;9.240;2022-07-23T07:25:51;10.43;;;5.53;;
22851;SDS011;11592;45.460;9.240;2022-07-23T07:28:18;10.23;;;5.47;;
22851;SDS011;11592;45.460;9.240;2022-07-23T07:30:45;8.93;;;5.38;;
22851;SDS011;11592;45.460;9.240;2022-07-23T07:33:12;7.47;;;5.00;;
22851;SDS011;11592;45.460;9.240;2022-07-23T07:35:38;8.52;;;5.15;;
22851;SDS011;11592;45.460;9.240;2022-07-23T07:38:05;12.55;;;5.68;;
22851;SDS011;11592;45.460;9.240;2022-07-23T07:40:32;9.05;;;5.05;;
22851;SDS011;11592;45.460;9.240;2022-07-23T07:43:00;8.55;;;5.53;;
22851;SDS011;11592;45.460;9.240;2022-07-23T07:45:30;11.63;;;5.68;;
22851;SDS011;11592;45.460;9.240;2022-07-23T07:47:57;8.45;;;5.65;;
22851;SDS011;11592;45.460;9.240;2022-07-23T07:50:24;7.22;;;5.15;;
22851;SDS011;11592;45.460;9.240;2022-07-23T07:52:51;8.85;;;5.95;;
22851;SDS011;11592;45.460;9.240;2022-07-23T07:55:18;9.23;;;5.57;;
22851;SDS011;11592;45.460;9.240;2022-07-23T07:57:46;9.38;;;5.45;;
22851;SDS011;11592;45.460;9.240;2022-07-23T08:00:14;9.20;;;5.80;;
22851;SDS011;11592;45.460;9.240;2022-07-23T08:02:42;8.00;;;5.10;;
22851;SDS011;11592;45.460;9.240;2022-07-23T08:05:18;10.98;;;6.15;;
22851;SDS011;11592;45.460;9.240;2022-07-23T08:07:53;10.25;;;5.70;;
22851;SDS011;11592;45.460;9.240;2022-07-23T08:10:21;8.70;;;6.20;;
22851;SDS011;11592;45.460;9.240;2022-07-23T08:12:49;8.25;;;5.68;;
22851;SDS011;11592;45.460;9.240;2022-07-23T08:15:19;9.93;;;5.95;;
22851;SDS011;11592;45.460;9.240;2022-07-23T08:17:47;12.65;;;6.13;;
22851;SDS011;11592;45.460;9.240;2022-07-23T08:20:15;9.35;;;5.78;;
22851;SDS011;11592;45.460;9.240;2022-07-23T08:22:52;12.13;;;5.68;;
22851;SDS011;11592;45.460;9.240;2022-07-23T08:27:51;10.48;;;6.35;;
22851;SDS011;11592;45.460;9.240;2022-07-23T08:30:19;9.43;;;5.32;;
22851;SDS011;11592;45.460;9.240;2022-07-23T08:35:28;9.85;;;6.25;;
22851;SDS011;11592;45.460;9.240;2022-07-23T08:38:03;11.02;;;5.93;;
22851;SDS011;11592;45.460;9.240;2022-07-23T08:40:31;8.80;;;5.88;;
22851;SDS011;11592;45.460;9.240;2022-07-23T08:42:59;12.18;;;5.88;;
22851;SDS011;11592;45.460;9.240;2022-07-23T08:45:28;8.23;;;6.38;;
22851;SDS011;11592;45.460;9.240;2022-07-23T08:47:56;9.25;;;6.75;;
22851;SDS011;11592;45.460;9.240;2022-07-23T08:50:31;16.95;;;7.05;;
22851;SDS011;11592;45.460;9.240;2022-07-23T08:53:02;9.68;;;6.85;;
22851;SDS011;11592;45.460;9.240;2022-07-23T08:55:32;8.80;;;6.10;;
22851;SDS011;11592;45.460;9.240;2022-07-23T08:57:59;10.32;;;6.47;;
22851;SDS011;11592;45.460;9.240;2022-07-23T09:00:26;8.80;;;6.60;;
22851;SDS011;11592;45.460;9.240;2022-07-23T09:02:53;13.38;;;7.07;;
22851;SDS011;11592;45.460;9.240;2022-07-23T09:05:20;10.27;;;6.95;;
22851;SDS011;11592;45.460;9.240;2022-07-23T09:16:28;11.00;;;7.38;;
22851;SDS011;11592;45.460;9.240;2022-07-23T09:19:00;11.48;;;7.53;;
22851;SDS011;11592;45.460;9.240;2022-07-23T09:21:33;12.20;;;7.30;;
22851;SDS011;11592;45.460;9.240;2022-07-23T09:24:08;11.93;;;7.30;;
22851;SDS011;11592;45.460;9.240;2022-07-23T09:26:40;11.15;;;7.35;;
22851;SDS011;11592;45.460;9.240;2022-07-23T09:29:32;15.38;;;8.00;;
22851;SDS011;11592;45.460;9.240;2022-07-23T09:31:59;13.48;;;7.25;;
22851;SDS011;11592;45.460;9.240;2022-07-23T09:34:28;8.95;;;7.38;;
22851;SDS011;11592;45.460;9.240;2022-07-23T09:36:57;11.15;;;7.78;;
22851;SDS011;11592;45.460;9.240;2022-07-23T09:39:34;11.50;;;7.85;;
22851;SDS011;11592;45.460;9.240;2022-07-23T09:42:15;12.52;;;7.60;;
22851;SDS011;11592;45.460;9.240;2022-07-23T09:44:56;13.93;;;8.00;;
22851;SDS011;11592;45.460;9.240;2022-07-23T09:47:25;11.65;;;7.43;;
22851;SDS011;11592;45.460;9.240;2022-07-23T09:50:02;12.05;;;7.93;;
22851;SDS011;11592;45.460;9.240;2022-07-23T09:52:33;16.98;;;8.13;;
22851;SDS011;11592;45.460;9.240;2022-07-23T09:55:10;13.95;;;8.10;;
22851;SDS011;11592;45.460;9.240;2022-07-23T09:57:38;14.55;;;8.00;;
22851;SDS011;11592;45.460;9.240;2022-07-23T10:00:08;10.70;;;7.55;;
22851;SDS011;11592;45.460;9.240;2022-07-23T10:02:37;15.30;;;8.00;;
22851;SDS011;11592;45.460;9.240;2022-07-23T10:05:06;11.75;;;7.50;;
22851;SDS011;11592;45.460;9.240;2022-07-23T10:07:34;10.55;;;7.90;;
22851;SDS011;11592;45.460;9.240;2022-07-23T10:10:04;13.82;;;8.43;;
22851;SDS011;11592;45.460;9.240;2022-07-23T10:12:32;17.35;;;7.80;;
22851;SDS011;11592;45.460;9.240;2022-07-23T10:15:07;10.38;;;8.05;;
22851;SDS011;11592;45.460;9.240;2022-07-23T10:17:35;11.23;;;8.02;;
22851;SDS011;11592;45.460;9.240;2022-07-23T10:20:03;10.63;;;7.93;;
22851;SDS011;11592;45.460;9.240;2022-07-23T10:22:31;12.90;;;7.88;;
22851;SDS011;11592;45.460;9.240;2022-07-23T10:33:20;13.70;;;7.53;;
22851;SDS011;11592;45.460;9.240;2022-07-23T10:36:26;11.65;;;7.93;;
22851;SDS011;11592;45.460;9.240;2022-07-23T10:38:55;11.40;;;7.88;;
22851;SDS011;11592;45.460;9.240;2022-07-23T10:44:10;14.27;;;7.68;;
22851;SDS011;11592;45.460;9.240;2022-07-23T10:47:12;9.63;;;7.53;;
22851;SDS011;11592;45.460;9.240;2022-07-23T10:49:32;10.50;;;7.57;;
22851;SDS011;11592;45.460;9.240;2022-07-23T10:54:56;12.43;;;7.18;;
22851;SDS011;11592;45.460;9.240;2022-07-23T10:57:50;13.48;;;7.47;;
22851;SDS011;11592;45.460;9.240;2022-07-23T11:00:21;9.80;;;7.20;;
22851;SDS011;11592;45.460;9.240;2022-07-23T11:02:51;13.52;;;7.45;;
22851;SDS011;11592;45.460;9.240;2022-07-23T11:05:23;11.05;;;7.10;;
22851;SDS011;11592;45.460;9.240;2022-07-23T11:10:34;15.82;;;8.48;;
22851;SDS011;11592;45.460;9.240;2022-07-23T11:18:52;13.60;;;8.05;;
22851;SDS011;11592;45.460;9.240;2022-07-23T11:23:59;11.25;;;7.35;;
22851;SDS011;11592;45.460;9.240;2022-07-23T11:32:01;12.27;;;7.10;;
22851;SDS011;11592;45.460;9.240;2022-07-23T11:34:44;10.40;;;7.35;;
22851;SDS011;11592;45.460;9.240;2022-07-23T11:37:27;12.27;;;7.00;;
22851;SDS011;11592;45.460;9.240;2022-07-23T11:39:57;13.93;;;7.25;;
22851;SDS011;11592;45.460;9.240;2022-07-23T11:42:24;10.73;;;6.53;;
22851;SDS011;11592;45.460;9.240;2022-07-23T11:44:56;14.73;;;6.97;;
22851;SDS011;11592;45.460;9.240;2022-07-23T11:47:24;12.15;;;7.22;;
22851;SDS011;11592;45.460;9.240;2022-07-23T11:49:52;9.90;;;6.40;;
22851;SDS011;11592;45.460;9.240;2022-07-23T11:52:20;17.50;;;7.47;;
22851;SDS011;11592;45.460;9.240;2022-07-23T11:54:52;8.50;;;6.65;;
22851;SDS011;11592;45.460;9.240;2022-07-23T11:57:23;8.90;;;6.60;;
22851;SDS011;11592;45.460;9.240;2022-07-23T11:59:56;13.57;;;6.95;;
22851;SDS011;11592;45.460;9.240;2022-07-23T12:02:25;9.13;;;6.38;;
22851;SDS011;11592;45.460;9.240;2022-07-23T12:04:52;10.30;;;7.75;;
22851;SDS011;11592;45.460;9.240;2022-07-23T12:07:33;14.38;;;7.32;;
22851;SDS011;11592;45.460;9.240;2022-07-23T12:10:12;11.88;;;7.68;;
22851;SDS011;11592;45.460;9.240;2022-07-23T12:12:43;13.43;;;8.43;;
22851;SDS011;11592;45.460;9.240;2022-07-23T12:15:22;11.30;;;8.00;;
22851;SDS011;11592;45.460;9.240;2022-07-23T12:17:51;12.32;;;7.45;;
22851;SDS011;11592;45.460;9.240;2022-07-23T12:20:20;13.70;;;8.73;;
22851;SDS011;11592;45.460;9.240;2022-07-23T12:22:50;10.75;;;7.90;;
22851;SDS011;11592;45.460;9.240;2022-07-23T12:25:19;12.35;;;7.18;;
22851;SDS011;11592;45.460;9.240;2022-07-23T12:27:58;11.65;;;8.45;;
22851;SDS011;11592;45.460;9.240;2022-07-23T12:30:26;9.85;;;7.13;;
22851;SDS011;11592;45.460;9.240;2022-07-23T12:33:00;10.90;;;7.90;;
22851;SDS011;11592;45.460;9.240;2022-07-23T12:35:34;13.60;;;8.40;;
22851;SDS011;11592;45.460;9.240;2022-07-23T12:38:11;10.57;;;8.20;;
22851;SDS011;11592;45.460;9.240;2022-07-23T12:43:27;16.55;;;8.30;;
22851;SDS011;11592;45.460;9.240;2022-07-23T12:46:02;14.35;;;7.93;;
22851;SDS011;11592;45.460;9.240;2022-07-23T12:51:04;11.43;;;7.55;;
22851;SDS011;11592;45.460;9.240;2022-07-23T12:54:08;13.07;;;7.55;;
22851;SDS011;11592;45.460;9.240;2022-07-23T12:56:36;10.55;;;7.65;;
22851;SDS011;11592;45.460;9.240;2022-07-23T12:59:14;10.30;;;8.23;;
22851;SDS011;11592;45.460;9.240;2022-07-23T13:01:45;9.65;;;8.13;;
22851;SDS011;11592;45.460;9.240;2022-07-23T13:04:21;10.20;;;8.70;;
22851;SDS011;11592;45.460;9.240;2022-07-23T13:06:50;11.68;;;8.05;;
22851;SDS011;11592;45.460;9.240;2022-07-23T13:09:31;13.68;;;8.23;;
22851;SDS011;11592;45.460;9.240;2022-07-23T13:12:07;16.38;;;8.38;;
22851;SDS011;11592;45.460;9.240;2022-07-23T13:14:36;10.73;;;8.45;;
22851;SDS011;11592;45.460;9.240;2022-07-23T13:17:04;23.15;;;14.68;;
22851;SDS011;11592;45.460;9.240;2022-07-23T13:19:32;11.57;;;8.65;;
22851;SDS011;11592;45.460;9.240;2022-07-23T13:22:00;11.77;;;8.43;;
22851;SDS011;11592;45.460;9.240;2022-07-23T13:24:34;11.30;;;8.10;;
22851;SDS011;11592;45.460;9.240;2022-07-23T13:27:04;12.50;;;8.00;;
22851;SDS011;11592;45.460;9.240;2022-07-23T13:29:36;14.68;;;8.88;;
22851;SDS011;11592;45.460;9.240;2022-07-23T13:32:03;11.70;;;8.48;;
22851;SDS011;11592;45.460;9.240;2022-07-23T13:34:38;14.40;;;9.23;;
22851;SDS011;11592;45.460;9.240;2022-07-23T13:37:07;12.95;;;8.85;;
22851;SDS011;11592;45.460;9.240;2022-07-23T13:39:33;15.35;;;8.77;;
22851;SDS011;11592;45.460;9.240;2022-07-23T13:42:04;16.75;;;9.80;;
22851;SDS011;11592;45.460;9.240;2022-07-23T13:44:33;14.52;;;8.88;;
22851;SDS011;11592;45.460;9.240;2022-07-23T13:47:01;14.80;;;9.35;;
22851;SDS011;11592;45.460;9.240;2022-07-23T13:49:29;13.73;;;8.90;;
22851;SDS011;11592;45.460;9.240;2022-07-23T13:51:56;9.95;;;7.97;;
22851;SDS011;11592;45.460;9.240;2022-07-23T13:54:24;12.68;;;8.77;;
22851;SDS011;11592;45.460;9.240;2022-07-23T13:56:53;14.57;;;8.30;;
22851;SDS011;11592;45.460;9.240;2022-07-23T13:59:20;11.18;;;8.18;;
22851;SDS011;11592;45.460;9.240;2022-07-23T14:01:51;11.52;;;7.63;;
22851;SDS011;11592;45.460;9.240;2022-07-23T14:04:38;13.75;;;7.93;;
22851;SDS011;11592;45.460;9.240;2022-07-23T14:07:07;11.57;;;7.32;;
22851;SDS011;11592;45.460;9.240;2022-07-23T14:09:34;14.70;;;7.50;;
22851;SDS011;11592;45.460;9.240;2022-07-23T14:12:01;12.20;;;7.43;;
22851;SDS011;11592;45.460;9.240;2022-07-23T14:14:28;12.02;;;7.60;;
22851;SDS011;11592;45.460;9.240;2022-07-23T14:16:55;13.00;;;7.75;;
22851;SDS011;11592;45.460;9.240;2022-07-23T14:19:23;15.40;;;8.20;;
22851;SDS011;11592;45.460;9.240;2022-07-23T14:21:49;9.70;;;6.78;;
22851;SDS011;11592;45.460;9.240;2022-07-23T14:24:16;9.82;;;6.90;;
22851;SDS011;11592;45.460;9.240;2022-07-23T14:26:44;10.65;;;6.88;;
22851;SDS011;11592;45.460;9.240;2022-07-23T14:29:10;14.43;;;7.32;;
22851;SDS011;11592;45.460;9.240;2022-07-23T14:31:37;13.75;;;7.00;;
22851;SDS011;11592;45.460;9.240;2022-07-23T14:34:04;11.27;;;6.90;;
22851;SDS011;11592;45.460;9.240;2022-07-23T14:36:32;19.60;;;7.05;;
22851;SDS011;11592;45.460;9.240;2022-07-23T14:39:00;9.25;;;7.47;;
22851;SDS011;11592;45.460;9.240;2022-07-23T14:41:28;9.48;;;7.05;;
22851;SDS011;11592;45.460;9.240;2022-07-23T14:43:55;11.55;;;6.88;;
22851;SDS011;11592;45.460;9.240;2022-07-23T14:46:22;11.25;;;6.97;;
22851;SDS011;11592;45.460;9.240;2022-07-23T14:48:49;15.35;;;7.70;;
22851;SDS011;11592;45.460;9.240;2022-07-23T14:51:16;14.82;;;7.40;;
22851;SDS011;11592;45.460;9.240;2022-07-23T14:53:44;7.72;;;6.93;;
22851;SDS011;11592;45.460;9.240;2022-07-23T14:56:11;9.20;;;6.88;;
22851;SDS011;11592;45.460;9.240;2022-07-23T14:58:40;11.27;;;7.55;;
22851;SDS011;11592;45.460;9.240;2022-07-23T15:01:07;9.73;;;7.18;;
22851;SDS011;11592;45.460;9.240;2022-07-23T15:03:35;10.77;;;6.70;;
22851;SDS011;11592;45.460;9.240;2022-07-23T15:06:08;11.38;;;6.95;;
22851;SDS011;11592;45.460;9.240;2022-07-23T15:08:35;9.88;;;7.00;;
22851;SDS011;11592;45.460;9.240;2022-07-23T15:11:02;10.70;;;6.90;;
22851;SDS011;11592;45.460;9.240;2022-07-23T15:13:29;8.75;;;7.15;;
22851;SDS011;11592;45.460;9.240;2022-07-23T15:15:57;12.40;;;7.45;;
22851;SDS011;11592;45.460;9.240;2022-07-23T15:18:24;11.55;;;7.18;;
22851;SDS011;11592;45.460;9.240;2022-07-23T15:20:51;10.38;;;6.90;;
22851;SDS011;11592;45.460;9.240;2022-07-23T15:23:18;13.40;;;7.43;;
22851;SDS011;11592;45.460;9.240;2022-07-23T15:25:45;12.02;;;7.90;;
22851;SDS011;11592;45.460;9.240;2022-07-23T15:28:16;12.05;;;8.05;;
22851;SDS011;11592;45.460;9.240;2022-07-23T15:30:47;13.00;;;7.40;;
22851;SDS011;11592;45.460;9.240;2022-07-23T15:33:19;15.20;;;7.53;;
22851;SDS011;11592;45.460;9.240;2022-07-23T15:35:47;9.95;;;7.07;;
22851;SDS011;11592;45.460;9.240;2022-07-23T15:38:15;14.55;;;7.90;;